Portada
METAR-TAF:

METAR-TAF

Aeroports :

Matagami, Quebec, Canadà

latitud: 49-46N, longitud: 077-49W, altitud: 281 m

Observació

L'informe es va fer fa 47 minuts, a les 07:31 UTC
Vent 8 kt del Sud
Temperatura -2°C
Humitat 93%
Pressió 1009 hPa
Visibilitat: 14.5 km
Cel cobert a una alçada de 1500 ft

METAR: CYNM 280731Z AUTO 18008KT 9SM OVC015 M02/M03 A2979 RMK SLP108

Hora: 04:18 (08:18 UTC)


TAF: manca

Observacions i pronòstics meteorològics de més de 4000 aeroports (METAR i TAF).

Les estacions disponibles són els punts grocs i vermells al mapa.

Posi el ratolí al punt desitjat per veure el nom de l'estació.

Feu clic per veure les observacions i els pronòstics meteorològics.

Per canviar el mapa: feu clic els botons verds amb una creu de color negre per apropar; al botó verd amb un guió per allunyar la imatge; o en les fletxes verdes per a mapes adjacents.


METAR-TAF: